• Join FlightAware (Why Join?)
  • Login
  • US Flag 
09:00AM EDT


 

Airport Tracker/Info


-or-


 

Live Flight TrackerFlight Track Log ✈ UAL4236 ✈ 10-Apr-2013 ✈ KIAH - KELP

Flight Track Log - Related Links

Times and Time Zones

All times are in EDT time to prevent confusion due to time zone crossing. See the UAL4236 flight status page for this flight to view local times or setup timezone preferences in your user account.

Time Position Orientation Groundspeed Altitude Reporting Facility
EDT Latitude Longitude Course Direction KTS MPH feet Rate Location/Type
10:12AM 30.0350 -95.8199 276° West  Level FlightAware Approximate
10:13AM 30.0452 -95.9423 276° West  Level FlightAware Approximate
10:14AM 30.0677 -96.0614 276° West  Level FlightAware Approximate
10:15AM 30.0788 -96.1837 276° West  Level FlightAware Approximate
10:16AM 30.1000 -96.2977 270° West  Level FlightAware Approximate
10:17AM 30.1171 -96.4191 279° West  Level FlightAware Approximate
10:18AM 30.1344 -96.5405 280° West  Level FlightAware Approximate
10:19AM 30.1531 -96.6617 280° West  Level FlightAware Approximate
10:20AM 30.1732 -96.7826 283° West  Level FlightAware Approximate
10:21AM 30.1972 -96.9025 283° West  Level FlightAware Approximate
10:22AM 30.2027 -97.0248 291° West  Level FlightAware Approximate
10:23AM 30.2286 -97.1437 280° West  Level FlightAware Approximate
10:24AM 30.2472 -97.2650 280° West  Level FlightAware Approximate
10:25AM 30.2669 -97.3861 276° West  Level FlightAware Approximate
10:26AM 30.2781 -97.5087 276° West  Level FlightAware Approximate
10:27AM 30.2935 -97.6306 280° West  Level FlightAware Approximate
10:28AM 30.3127 -97.7518 280° West  Level FlightAware Approximate
10:29AM 30.3317 -97.8732 280° West  Level FlightAware Approximate
10:30AM 30.3473 -97.9952 278° West  Level FlightAware Approximate
10:31AM 30.3626 -98.1172 278° West  Level FlightAware Approximate
10:32AM 30.3828 -98.2383 282° West  Level FlightAware Approximate
10:33AM 30.4035 -98.3594 279° West  Level FlightAware Approximate
10:34AM 30.4199 -98.4813 279° West  Level FlightAware Approximate
10:35AM 30.4362 -98.6033 279° West  Level FlightAware Approximate
10:36AM 30.4524 -98.7253 279° West  Level FlightAware Approximate
10:37AM 30.4685 -98.8474 279° West  Level FlightAware Approximate
10:38AM 30.4844 -98.9695 279° West  Level FlightAware Approximate
10:39AM 30.5002 -99.0917 279° West  Level FlightAware Approximate
10:40AM 30.5160 -99.2139 279° West  Level FlightAware Approximate
10:41AM 30.5316 -99.3361 278° West  Level FlightAware Approximate
10:42AM 30.5451 -99.4587 277° West  Level FlightAware Approximate
10:43AM 30.5583 -99.5814 277° West  Level FlightAware Approximate
10:44AM 30.5714 -99.7040 277° West  Level FlightAware Approximate
10:45AM 30.5855 -99.8265 284° West  Level FlightAware Approximate
10:46AM 30.6115 -99.9464 284° West  Level FlightAware Approximate
10:47AM 30.6373 -100.0664 284° West  Level FlightAware Approximate
10:48AM 30.6631 -100.1865 284° West  Level FlightAware Approximate
10:49AM 30.6888 -100.3066 284° West  Level FlightAware Approximate
10:50AM 30.7143 -100.4268 284° West  Level FlightAware Approximate
10:51AM 30.7393 -100.5472 283° West  Level FlightAware Approximate
10:52AM 30.7628 -100.6680 283° West  Level FlightAware Approximate
10:53AM 30.7861 -100.7888 283° West  Level FlightAware Approximate
10:54AM 30.8094 -100.9098 283° West  Level FlightAware Approximate
10:55AM 30.8326 -101.0307 283° West  Level FlightAware Approximate
10:56AM 30.8556 -101.1518 283° West  Level FlightAware Approximate
10:57AM 30.8785 -101.2729 282° West  Level FlightAware Approximate
10:58AM 30.9014 -101.3941 282° West  Level FlightAware Approximate
10:59AM 30.9241 -101.5153 282° West  Level FlightAware Approximate
11:00AM 30.9467 -101.6365 282° West  Level FlightAware Approximate
11:01AM 30.9691 -101.7579 282° West  Level FlightAware Approximate
11:02AM 30.9915 -101.8793 282° West  Level FlightAware Approximate
11:03AM 31.0138 -102.0007 282° West  Level FlightAware Approximate
11:04AM 31.0359 -102.1222 282° West  Level FlightAware Approximate
11:05AM 31.0580 -102.2437 282° West  Level FlightAware Approximate
11:06AM 31.0803 -102.3652 282° West  Level FlightAware Approximate
11:07AM 31.1024 -102.4868 282° West  Level FlightAware Approximate
11:08AM 31.1245 -102.6085 282° West  Level FlightAware Approximate
11:09AM 31.1464 -102.7302 282° West  Level FlightAware Approximate
11:10AM 31.1682 -102.8519 282° West  Level FlightAware Approximate
11:11AM 31.1899 -102.9737 282° West  Level FlightAware Approximate
11:12AM 31.2115 -103.0956 282° West  Level FlightAware Approximate
11:13AM 31.2330 -103.2175 282° West  Level FlightAware Approximate
11:14AM 31.2543 -103.3395 282° West  Level FlightAware Approximate
11:15AM 31.2755 -103.4615 282° West  Level FlightAware Approximate
11:16AM 31.2966 -103.5836 281° West  Level FlightAware Approximate
11:17AM 31.3185 -103.7054 291° West  Level FlightAware Approximate
11:18AM 31.3352 -103.8266 282° West  Level FlightAware Approximate
11:19AM 31.3579 -103.9483 282° West  Level FlightAware Approximate
11:20AM 31.3805 -104.0702 282° West  Level FlightAware Approximate
11:21AM 31.4030 -104.1920 282° West  Level FlightAware Approximate
11:22AM 31.4261 -104.3138 283° West  Level FlightAware Approximate
11:23AM 31.4500 -104.4353 270° West  Level FlightAware Approximate
11:24AM 31.4564 -104.5590 286° West  Level FlightAware Approximate
11:25AM 31.4667 -104.6821 270° West  Level FlightAware Approximate
11:26AM 31.4778 -104.8057 280° West  Level FlightAware Approximate
11:27AM 31.4967 -104.9286 280° West  Level FlightAware Approximate
11:28AM 31.5114 -105.0522 277° West  Level FlightAware Approximate
11:29AM 31.5243 -105.1761 277° West  Level FlightAware Approximate
11:30AM 31.5364 -105.3002 276° West  Level FlightAware Approximate
11:31AM 31.5478 -105.4244 276° West  Level FlightAware Approximate
11:32AM 31.5591 -105.5486 276° West  Level FlightAware Approximate
11:33AM 31.5667 -105.6731 270° West  Level FlightAware Approximate
11:34AM 31.5881 -105.7928 300° West  Level FlightAware Approximate
11:35AM 31.6420 -105.9006 300° West  Level FlightAware Approximate
11:36AM 31.6959 -106.0084 300° West  Level FlightAware Approximate
11:37AM 31.7287 -106.1272 288° West  Level FlightAware Approximate
11:38AM 31.7612 -106.2464 288° West  Level FlightAware Approximate
11:39AM 31.8000 -106.3616 270° West  Level FlightAware Approximate
11:40AM 31.8000 -106.3667 270° West  Level FlightAware Approximate
11:41AM 31.8072 -106.3764 270° West  Level Estimated
11:42AM 31.8072 -106.3764 270° West  Level Estimated
11:43AM 31.8072 -106.3764 270° West  Level Estimated
11:44AM 31.8072 -106.3764 270° West  Level Estimated
11:45AM 31.8072 -106.3764 270° West  Level Estimated
11:46AM 31.8072 -106.3764 270° West  Level Estimated
11:47AM 31.8072 -106.3764 270° West  Level Estimated
11:48AM 31.8072 -106.3764 270° West  Level Estimated
11:49AM 31.8072 -106.3764 270° West  Level Estimated
11:50AM 31.8072 -106.3764 270° West  Level Estimated